| time (UTC) | temp F | wind direction | speed MPH | gust MPH | rain 1hr in | rain 24hr in | rain mn in | humidity % | barometer mb |
| 20260510230030 | 71 | 185 | 4.0 | 15.0 | 0.00 | 0.04 | 0.01 | 27 | 1021.6 |
| 20260510224533 | 72 | 185 | 2.0 | 12.0 | 0.00 | 0.06 | 0.01 | 26 | 1021.5 |
| 20260510223031 | 71 | 185 | 6.0 | 12.0 | 0.00 | 0.06 | 0.01 | 29 | 1021.4 |
| 20260510221531 | 71 | 185 | 4.0 | 10.0 | 0.00 | 0.06 | 0.01 | 28 | 1021.6 |
| 20260510220030 | 70 | 0 | 3.0 | 14.0 | 0.00 | 0.06 | 0.01 | 29 | 1021.8 |
| 20260510214530 | 73 | 0 | 2.0 | 11.0 | 0.00 | 0.06 | 0.01 | 26 | 1021.8 |
| 20260510213029 | 73 | 185 | 5.0 | 14.0 | 0.00 | 0.06 | 0.01 | 28 | 1021.9 |
| 20260510211536 | 73 | 185 | 6.0 | 14.0 | 0.00 | 0.06 | 0.01 | 26 | 1021.9 |
| 20260510210028 | 72 | 185 | 5.0 | 16.0 | 0.00 | 0.06 | 0.01 | 29 | 1022.1 |
| 20260510204536 | 73 | 185 | 7.0 | 16.0 | 0.00 | 0.06 | 0.01 | 29 | 1022.4 |
| 20260510203028 | 72 | 185 | 7.0 | 18.0 | 0.00 | 0.06 | 0.01 | 31 | 1022.6 |
| 20260510201528 | 71 | 185 | 8.0 | 19.0 | 0.00 | 0.06 | 0.01 | 32 | 1022.4 |
| 20260510200030 | 71 | 185 | 9.0 | 18.0 | 0.00 | 0.06 | 0.01 | 32 | 1022.6 |
| 20260510194532 | 71 | 185 | 10.0 | 19.0 | 0.00 | 0.06 | 0.01 | 33 | 1022.5 |
| 20260510193033 | 70 | 185 | 11.0 | 20.0 | 0.00 | 0.06 | 0.01 | 35 | 1022.4 |
| 20260510191535 | 70 | 185 | 10.0 | 21.0 | 0.00 | 0.06 | 0.01 | 35 | 1022.4 |
| 20260510190041 | 69 | 185 | 13.0 | 22.0 | 0.00 | 0.06 | 0.01 | 37 | 1022.3 |
| 20260510184528 | 67 | 185 | 12.0 | 21.0 | 0.00 | 0.06 | 0.01 | 37 | 1022.6 |
| 20260510183028 | 68 | 185 | 13.0 | 22.0 | 0.00 | 0.06 | 0.01 | 40 | 1022.8 |
| 20260510181530 | 67 | 185 | 15.0 | 22.0 | 0.00 | 0.06 | 0.01 | 42 | 1023.1 |
| 20260510180029 | 64 | 185 | 14.0 | 24.0 | 0.00 | 0.06 | 0.01 | 45 | 1023.0 |
| 20260510174527 | 62 | 185 | 12.0 | 20.0 | 0.00 | 0.06 | 0.01 | 54 | 1023.2 |
| 20260510173028 | 61 | 185 | 11.0 | 21.0 | 0.00 | 0.06 | 0.01 | 60 | 1023.2 |
| 20260510171538 | 59 | 185 | 11.0 | 19.0 | 0.00 | 0.06 | 0.01 | 65 | 1022.9 |
| 20260510170028 | 57 | 185 | 11.0 | 18.0 | 0.00 | 0.06 | 0.01 | 72 | 1022.7 |
| 20260510164530 | 54 | 185 | 11.0 | 16.0 | 0.00 | 0.06 | 0.01 | 75 | 1022.8 |
| 20260510163038 | 53 | 185 | 12.0 | 18.0 | 0.00 | 0.06 | 0.01 | 80 | 1022.6 |
| 20260510161530 | 51 | 185 | 10.0 | 16.0 | 0.00 | 0.06 | 0.01 | 82 | 1022.5 |
| 20260510160034 | 49 | 185 | 11.0 | 17.0 | 0.00 | 0.06 | 0.01 | 83 | 1022.1 |
| 20260510154528 | 49 | 185 | 12.0 | 16.0 | 0.01 | 0.06 | 0.01 | 83 | 1021.8 |
| 20260510153038 | 49 | 185 | 11.0 | 18.0 | 0.01 | 0.06 | 0.01 | 84 | 1021.9 |
| 20260510151529 | 49 | 185 | 12.0 | 17.0 | 0.01 | 0.06 | 0.01 | 85 | 1022.4 |
| 20260510150030 | 48 | 185 | 12.0 | 18.0 | 0.01 | 0.06 | 0.01 | 85 | 1022.2 |
| 20260510144528 | 48 | 185 | 12.0 | 20.0 | 0.00 | 0.05 | 0.00 | 84 | 1022.6 |
| 20260510143028 | 48 | 185 | 15.0 | 22.0 | 0.00 | 0.05 | 0.00 | 83 | 1022.5 |
| 20260510141528 | 49 | 180 | 16.0 | 23.0 | 0.00 | 0.05 | 0.00 | 81 | 1022.3 |
| 20260510140028 | 50 | 180 | 15.0 | 22.0 | 0.00 | 0.05 | 0.00 | 80 | 1022.1 |
| 20260510134528 | 50 | 185 | 14.0 | 22.0 | 0.00 | 0.05 | 0.00 | 80 | 1021.9 |
| 20260510133029 | 51 | 185 | 15.0 | 23.0 | 0.00 | 0.05 | 0.00 | 79 | 1021.5 |
| 20260510131530 | 51 | 185 | 13.0 | 24.0 | 0.00 | 0.05 | 0.00 | 79 | 1020.9 |
| 20260510130030 | 52 | 185 | 14.0 | 26.0 | 0.00 | 0.05 | 0.00 | 76 | 1020.2 |
| 20260510124527 | 53 | 185 | 12.0 | 22.0 | 0.00 | 0.05 | 0.00 | 75 | 1019.4 |
| 20260510123032 | 53 | 185 | 17.0 | 29.0 | 0.00 | 0.05 | 0.00 | 76 | 1019.3 |
| 20260510121531 | 54 | 185 | 12.0 | 25.0 | 0.00 | 0.05 | 0.00 | 71 | 1018.6 |
| 20260510120030 | 55 | 185 | 18.0 | 29.0 | 0.00 | 0.05 | 0.00 | 69 | 1017.7 |
| 20260510114531 | 54 | 185 | 17.0 | 29.0 | 0.00 | 0.05 | 0.00 | 67 | 1017.4 |
| 20260510113036 | 53 | 185 | 18.0 | 28.0 | 0.00 | 0.05 | 0.00 | 67 | 1017.0 |
| 20260510111528 | 53 | 185 | 16.0 | 28.0 | 0.00 | 0.05 | 0.00 | 67 | 1017.2 |
| 20260510110045 | 53 | 185 | 16.0 | 23.0 | 0.00 | 0.05 | 0.00 | 67 | 1017.3 |
| 20260510104532 | 54 | 185 | 16.0 | 24.0 | 0.00 | 0.05 | 0.00 | 65 | 1017.2 |
| 20260510103028 | 54 | 185 | 16.0 | 22.0 | 0.00 | 0.05 | 0.00 | 64 | 1017.1 |
| 20260510101531 | 55 | 185 | 14.0 | 24.0 | 0.00 | 0.05 | 0.00 | 65 | 1017.2 |
| 20260510100039 | 55 | 185 | 14.0 | 19.0 | 0.00 | 0.05 | 0.00 | 68 | 1017.3 |
| 20260510094538 | 55 | 185 | 11.0 | 18.0 | 0.00 | 0.05 | 0.00 | 68 | 1017.7 |
| 20260510093034 | 55 | 185 | 15.0 | 21.0 | 0.00 | 0.05 | 0.00 | 69 | 1017.2 |
| 20260510091532 | 54 | 185 | 17.0 | 24.0 | 0.00 | 0.05 | 0.00 | 70 | 1016.7 |
| 20260510090029 | 54 | 185 | 14.0 | 23.0 | 0.00 | 0.05 | 0.00 | 71 | 1016.6 |
| 20260510084534 | 54 | 185 | 13.0 | 24.0 | 0.00 | 0.05 | 0.00 | 72 | 1016.6 |
| 20260510083030 | 54 | 185 | 17.0 | 23.0 | 0.00 | 0.05 | 0.00 | 72 | 1016.2 |
| 20260510081538 | 54 | 185 | 16.0 | 24.0 | 0.00 | 0.05 | 0.00 | 73 | 1015.7 |
| 20260510080048 | 54 | 185 | 16.0 | 23.0 | 0.00 | 0.05 | 0.00 | 74 | 1015.8 |
| 20260510074527 | 55 | 185 | 13.0 | 21.0 | 0.00 | 0.05 | 0.00 | 76 | 1015.9 |
| 20260510073039 | 55 | 185 | 17.0 | 22.0 | 0.00 | 0.05 | 0.00 | 77 | 1015.6 |
| 20260510071530 | 55 | 185 | 14.0 | 23.0 | 0.00 | 0.05 | 0.00 | 76 | 1015.8 |
| 20260510070042 | 55 | 185 | 12.0 | 19.0 | 0.00 | 0.05 | 0.00 | 76 | 1015.9 |
| 20260510064527 | 55 | 185 | 13.0 | 18.0 | 0.00 | 0.05 | 0.00 | 76 | 1015.1 |
| 20260510063034 | 55 | 185 | 10.0 | 18.0 | 0.00 | 0.05 | 0.00 | 76 | 1014.4 |
| 20260510061531 | 55 | 185 | 12.0 | 20.0 | 0.00 | 0.05 | 0.00 | 76 | 1013.9 |
| 20260510060037 | 56 | 185 | 12.0 | 18.0 | 0.00 | 0.05 | 0.00 | 75 | 1013.4 |
| 20260510054528 | 57 | 185 | 15.0 | 21.0 | 0.00 | 0.05 | 0.00 | 74 | 1013.1 |
| 20260510053030 | 57 | 185 | 14.0 | 20.0 | 0.00 | 0.05 | 0.00 | 75 | 1012.5 |
| 20260510051530 | 56 | 185 | 9.0 | 13.0 | 0.00 | 0.05 | 0.00 | 76 | 1012.7 |
| 20260510050029 | 56 | 185 | 8.0 | 14.0 | 0.00 | 0.05 | 0.00 | 76 | 1012.7 |
| 20260510044532 | 56 | 185 | 7.0 | 11.0 | 0.00 | 0.05 | 0.05 | 74 | 1012.5 |
| 20260510043030 | 57 | 185 | 6.0 | 11.0 | 0.00 | 0.05 | 0.05 | 73 | 1012.1 |
| 20260510041528 | 58 | 185 | 7.0 | 14.0 | 0.00 | 0.05 | 0.05 | 70 | 1012.0 |
| 20260510040030 | 59 | 185 | 10.0 | 15.0 | 0.00 | 0.05 | 0.05 | 69 | 1011.5 |
| 20260510034530 | 60 | 185 | 12.0 | 15.0 | 0.00 | 0.05 | 0.05 | 67 | 1011.5 |
| 20260510033043 | 61 | 185 | 12.0 | 19.0 | 0.00 | 0.05 | 0.05 | 65 | 1011.2 |
| 20260510031532 | 62 | 185 | 11.0 | 18.0 | 0.00 | 0.05 | 0.05 | 63 | 1010.5 |
| 20260510030031 | 63 | 185 | 10.0 | 19.0 | 0.00 | 0.05 | 0.05 | 63 | 1010.0 |
| 20260510024528 | 64 | 185 | 6.0 | 16.0 | 0.00 | 0.05 | 0.05 | 61 | 1009.4 |
| 20260510023032 | 66 | 185 | 9.0 | 24.0 | 0.00 | 0.05 | 0.05 | 59 | 1008.6 |
| 20260510021611 | 66 | 185 | 17.0 | 23.0 | 0.00 | 0.05 | 0.05 | 60 | 1008.0 |
| 20260510020032 | 67 | 185 | 6.0 | 15.0 | 0.00 | 0.05 | 0.05 | 60 | 1007.7 |
| 20260510014544 | 68 | 185 | 13.0 | 17.0 | 0.00 | 0.05 | 0.05 | 57 | 1007.0 |
| 20260510013031 | 70 | 185 | 7.0 | 15.0 | 0.00 | 0.05 | 0.05 | 56 | 1006.4 |
| 20260510011530 | 71 | 185 | 7.0 | 9.0 | 0.00 | 0.05 | 0.05 | 54 | 1005.8 |
| 20260510010041 | 72 | 185 | 4.0 | 9.0 | 0.00 | 0.05 | 0.05 | 54 | 1005.8 |
| 20260510004531 | 73 | 185 | 4.0 | 6.0 | 0.00 | 0.05 | 0.05 | 54 | 1005.7 |
| 20260510003032 | 74 | 185 | 6.0 | 13.0 | 0.00 | 0.05 | 0.05 | 49 | 1005.5 |
| 20260510001534 | 75 | 185 | 7.0 | 15.0 | 0.02 | 0.05 | 0.05 | 48 | 1005.7 |
| 20260510000031 | 76 | 185 | 14.0 | 24.0 | 0.03 | 0.05 | 0.05 | 44 | 1005.7 |
| 20260509234528 | 76 | 185 | 15.0 | 24.0 | 0.05 | 0.05 | 0.05 | 42 | 1006.1 |
| 20260509233033 | 74 | 185 | 10.0 | 26.0 | 0.05 | 0.05 | 0.05 | 43 | 1006.4 |
| 20260509231530 | 76 | 185 | 13.0 | 26.0 | 0.03 | 0.03 | 0.03 | 36 | 1006.3 |